^^
Datos históricos de la estación: Murcia-Puente Tocinos
Diario Informe para Noviembre 25, 2019 Unidades:  Métrico    Ingés   Ambas
Diario Semanal Mensual Anual
  Máxima: Mínima: Promedio:
Temperatura: 21.3 °C 8.7 °C 14.9 °C
Punto de rocio: 11.3 °C 3.1 °C 7.6 °C
Humedad: 76.9% 49.6% 62%
Velocidad viento: 11.1km/h 2.2km/h 5.6km/h
Racha viento: 20.9km/h - -
Viento- - SSO
Presión: 1014.7 hPa 1011.7 hPa -
Precipitación: 0.0 mm    
 
 
Tabla de datos para Noviembre 25, 2019
Hora Temperatura Punto de rocio Presión Viento Velocidad viento Racha viento Humedad Intensidad lluvia(por hora) Nubes
00:04 10.4 °C 3.2 °C 1014.1 hPa SSE 8.1 km/h 11.3 km/h 60.9% 0.0 mm
00:09 10.6 °C 3.1 °C 1014.2 hPa SSE 7.6 km/h 9.5 km/h 60% 0.0 mm
00:14 10.7 °C 3.2 °C 1014.2 hPa SSE 6.8 km/h 9.7 km/h 60% 0.0 mm
00:19 10.7 °C 3.2 °C 1014.2 hPa SSE 6.5 km/h 4.8 km/h 60% 0.0 mm
00:24 10.8 °C 3.3 °C 1014.2 hPa SSE 4.2 km/h 5.6 km/h 60% 0.0 mm
00:29 10.8 °C 3.3 °C 1014.2 hPa SSO 3.2 km/h 7.6 km/h 59.8% 0.0 mm
00:34 11.2 °C 3.4 °C 1014.2 hPa OSO 4.2 km/h 8 km/h 58.8% 0.0 mm
00:39 11.3 °C 3.4 °C 1014.2 hPa ONO 4.7 km/h 8 km/h 58% 0.0 mm
00:44 11.3 °C 3.4 °C 1014.1 hPa ONO 4.9 km/h 8 km/h 58% 0.0 mm
00:49 11.4 °C 3.4 °C 1014.1 hPa ONO 5 km/h 8 km/h 57.7% 0.0 mm
00:54 11.4 °C 3.4 °C 1014.2 hPa SSE 4.8 km/h 7.4 km/h 57.8% 0.0 mm
00:59 11.2 °C 3.5 °C 1014.2 hPa SSE 4.7 km/h 8 km/h 59% 0.0 mm
01:04 11.2 °C 3.4 °C 1014.2 hPa SSE 3.6 km/h 4.8 km/h 58.5% 0.0 mm
01:09 11.2 °C 3.3 °C 1014.2 hPa SO 3.2 km/h 5.8 km/h 58.2% 0.0 mm
01:14 11.2 °C 3.5 °C 1014.2 hPa Oeste 3 km/h 7.4 km/h 59% 0.0 mm
01:19 11.2 °C 3.5 °C 1014.2 hPa Oeste 2.9 km/h 8 km/h 59% 0.0 mm
01:24 11.3 °C 3.5 °C 1014.2 hPa Oeste 4.4 km/h 8 km/h 58.5% 0.0 mm
01:29 11.6 °C 3.6 °C 1014.1 hPa Oeste 5 km/h 8 km/h 57.9% 0.0 mm
01:34 11.7 °C 3.5 °C 1014.1 hPa Oeste 4.2 km/h 8 km/h 57% 0.0 mm
01:39 11.8 °C 3.6 °C 1014.1 hPa Oeste 3.9 km/h 8 km/h 57% 0.0 mm
01:44 11.9 °C 3.7 °C 1013.8 hPa Oeste 3.4 km/h 5.8 km/h 57% 0.0 mm
01:49 11.9 °C 3.7 °C 1013.8 hPa NO 3.2 km/h 6.4 km/h 57% 0.0 mm
01:54 11.9 °C 3.7 °C 1013.9 hPa NNO 3 km/h 6.4 km/h 57.4% 0.0 mm
01:59 11.8 °C 3.8 °C 1013.9 hPa NNO 2.9 km/h 6.4 km/h 58.1% 0.0 mm
02:04 11.5 °C 3.8 °C 1013.9 hPa NO 3.6 km/h 8.4 km/h 59.2% 0.0 mm
02:09 11.3 °C 3.8 °C 1014.0 hPa Oeste 3.9 km/h 8.7 km/h 60% 0.0 mm
02:14 11.2 °C 3.7 °C 1014.0 hPa OSO 4.4 km/h 9.7 km/h 59.6% 0.0 mm
02:19 11.3 °C 3.7 °C 1014.0 hPa SO 4.7 km/h 8 km/h 59.3% 0.0 mm
02:24 11.2 °C 3.8 °C 1014.0 hPa SO 4.1 km/h 8 km/h 60% 0.0 mm
02:29 11.2 °C 3.7 °C 1013.9 hPa SO 3.9 km/h 8.4 km/h 60% 0.0 mm
02:34 11.2 °C 3.7 °C 1013.9 hPa SO 5.2 km/h 11.1 km/h 60% 0.0 mm
02:39 11.2 °C 3.7 °C 1013.9 hPa OSO 5.8 km/h 11.3 km/h 60% 0.0 mm
02:44 11.1 °C 3.8 °C 1013.9 hPa OSO 7 km/h 11.9 km/h 60.8% 0.0 mm
02:49 10.9 °C 3.7 °C 1013.9 hPa SSO 7.6 km/h 14 km/h 61% 0.0 mm
02:54 11 °C 3.7 °C 1013.9 hPa SSO 7.6 km/h 14.5 km/h 60.9% 0.0 mm
02:59 10.8 °C 3.7 °C 1013.7 hPa NNO 7.6 km/h 9.7 km/h 61.4% 0.0 mm
03:04 10.4 °C 3.7 °C 1013.7 hPa NNO 4.9 km/h 8 km/h 63.2% 0.0 mm
03:09 10.1 °C 3.8 °C 1014.1 hPa NNE 3.9 km/h 7.6 km/h 65% 0.0 mm
03:14 9.8 °C 3.7 °C 1014.1 hPa Sur 3.9 km/h 13 km/h 66% 0.0 mm
03:19 9.7 °C 3.9 °C 1014.1 hPa SO 3.9 km/h 12.9 km/h 66.8% 0.0 mm
03:24 9.7 °C 3.9 °C 1014.1 hPa SSE 5.2 km/h 9.3 km/h 66.9% 0.0 mm
03:29 9.7 °C 3.7 °C 1014.0 hPa SSE 5.8 km/h 13.7 km/h 66% 0.0 mm
03:34 9.7 °C 3.7 °C 1014.0 hPa SSE 6.6 km/h 14.8 km/h 66% 0.0 mm
03:39 9.7 °C 3.7 °C 1014.0 hPa SE 6.9 km/h 14.8 km/h 66% 0.0 mm
03:44 9.6 °C 3.6 °C 1013.8 hPa ONO 7.4 km/h 14.5 km/h 66.3% 0.0 mm
03:49 9.5 °C 3.6 °C 1013.8 hPa Este 7.6 km/h 11.3 km/h 67% 0.0 mm
03:54 9.6 °C 3.6 °C 1013.8 hPa Sur 5.6 km/h 8 km/h 66.3% 0.0 mm
03:59 9.5 °C 3.6 °C 1013.7 hPa Sur 4.7 km/h 8 km/h 66.8% 0.0 mm
04:04 9.3 °C 3.6 °C 1013.7 hPa SO 4.6 km/h 11.1 km/h 67.2% 0.0 mm
04:09 9.2 °C 3.6 °C 1013.7 hPa SSO 4.7 km/h 11.9 km/h 68% 0.0 mm
04:14 9.2 °C 3.6 °C 1013.4 hPa SSO 6.6 km/h 13 km/h 68% 0.0 mm
04:19 9.3 °C 3.7 °C 1013.4 hPa SO 7.6 km/h 14.8 km/h 68% 0.0 mm
04:24 9.4 °C 3.6 °C 1013.4 hPa SO 8.1 km/h 14.5 km/h 67.3% 0.0 mm
04:29 9.5 °C 3.7 °C 1013.3 hPa OSO 8.4 km/h 9.7 km/h 67% 0.0 mm
04:34 9.4 °C 3.5 °C 1013.3 hPa OSO 6.6 km/h 9.7 km/h 67% 0.0 mm
04:39 9.3 °C 3.6 °C 1013.3 hPa Sur 5.8 km/h 9.7 km/h 67.3% 0.0 mm
04:44 9.2 °C 3.6 °C 1013.2 hPa ESE 4 km/h 5 km/h 68% 0.0 mm
04:49 9.2 °C 3.6 °C 1013.2 hPa OSO 3.2 km/h 10 km/h 68% 0.0 mm
04:54 9.1 °C 3.5 °C 1013.2 hPa OSO 3.7 km/h 10 km/h 68.2% 0.0 mm
04:59 9.3 °C 3.9 °C 1013.2 hPa SO 3.9 km/h 14.8 km/h 69% 0.0 mm
05:04 10 °C 4.4 °C 1013.2 hPa SSO 7.3 km/h 19.8 km/h 68.1% 0.0 mm
05:09 10.9 °C 4.9 °C 1013.2 hPa SO 8.7 km/h 20.9 km/h 66.6% 0.0 mm
05:14 11.3 °C 5.1 °C 1013.2 hPa SO 10.4 km/h 19.3 km/h 65.3% 0.0 mm
05:19 11.6 °C 5.1 °C 1013.2 hPa OSO 11.1 km/h 14.5 km/h 64.5% 0.0 mm
05:24 11.7 °C 5.1 °C 1013.2 hPa OSO 8.3 km/h 11.3 km/h 64% 0.0 mm
05:29 11.6 °C 5.2 °C 1013.2 hPa SO 6.9 km/h 13.7 km/h 64.7% 0.0 mm
05:34 11.6 °C 5.3 °C 1013.2 hPa SO 7.9 km/h 14.8 km/h 65% 0.0 mm
05:39 11.7 °C 5.3 °C 1013.2 hPa OSO 8.4 km/h 15.6 km/h 64.6% 0.0 mm
05:44 11.7 °C 5.2 °C 1013.2 hPa OSO 8.4 km/h 16.1 km/h 64.3% 0.0 mm
05:49 11.6 °C 5.2 °C 1013.2 hPa OSO 8.4 km/h 12.9 km/h 65% 0.0 mm
05:54 11.5 °C 5.2 °C 1013.2 hPa OSO 7.4 km/h 11.3 km/h 65% 0.0 mm
05:59 11.4 °C 5.1 °C 1013.2 hPa OSO 6.9 km/h 9.7 km/h 65% 0.0 mm
06:04 11.3 °C 5 °C 1013.2 hPa OSO 6.1 km/h 9.7 km/h 65% 0.0 mm
06:09 11.1 °C 4.8 °C 1013.2 hPa SO 5.8 km/h 9.7 km/h 65.2% 0.0 mm
06:14 10.8 °C 4.7 °C 1013.1 hPa OSO 5.8 km/h 9.7 km/h 66% 0.0 mm
06:19 10.6 °C 4.7 °C 1013.1 hPa OSO 5.8 km/h 10 km/h 66.6% 0.0 mm
06:24 10.3 °C 4.6 °C 1013.2 hPa OSO 5.8 km/h 9.7 km/h 67.7% 0.0 mm
06:29 10.1 °C 4.5 °C 1013.2 hPa SO 5.8 km/h 8 km/h 68.4% 0.0 mm
06:34 9.8 °C 4.4 °C 1013.2 hPa OSO 4.5 km/h 8 km/h 69% 0.0 mm
06:39 9.7 °C 4.5 °C 1013.2 hPa SO 3.9 km/h 8 km/h 69.8% 0.0 mm
06:44 9.6 °C 4.4 °C 1013.2 hPa SO 3.4 km/h 8 km/h 70% 0.0 mm
06:49 9.6 °C 4.6 °C 1013.2 hPa SO 3.2 km/h 6.4 km/h 71% 0.0 mm
06:54 9.6 °C 4.6 °C 1013.4 hPa SO 2.6 km/h 3.2 km/h 71% 0.0 mm
06:59 9.6 °C 4.7 °C 1013.4 hPa SSE 2.2 km/h 7.6 km/h 71.5% 0.0 mm
07:04 9.7 °C 4.7 °C 1013.4 hPa SSE 2.9 km/h 8 km/h 71% 0.0 mm
07:09 9.7 °C 4.5 °C 1013.7 hPa SSE 3.2 km/h 8 km/h 70.2% 0.0 mm
07:14 9.7 °C 4.5 °C 1013.7 hPa Sur 3.2 km/h 6.9 km/h 70% 0.0 mm
07:19 9.7 °C 4.5 °C 1013.7 hPa SSE 3.2 km/h 9.3 km/h 70% 0.0 mm
07:24 9.5 °C 4.5 °C 1014.0 hPa Este 3.7 km/h 9.7 km/h 70.7% 0.0 mm
07:29 9.3 °C 4.4 °C 1014.0 hPa SSE 3.9 km/h 10 km/h 71.8% 0.0 mm
07:34 9.1 °C 4.4 °C 1014.0 hPa Sur 5.2 km/h 9.7 km/h 72.5% 0.0 mm
07:39 9.2 °C 4.5 °C 1014.0 hPa Sur 5.8 km/h 8 km/h 73% 0.0 mm
07:44 9.3 °C 4.6 °C 1013.7 hPa Sur 5.2 km/h 8.4 km/h 72.6% 0.0 mm
07:49 9.5 °C 4.7 °C 1013.7 hPa Sur 5 km/h 9.3 km/h 72% 0.0 mm
07:54 9.5 °C 4.5 °C 1014.0 hPa SSO 5 km/h 9.7 km/h 71.1% 0.0 mm
07:59 9.1 °C 4.3 °C 1014.0 hPa NO 5 km/h 9.3 km/h 72% 0.0 mm
08:04 8.8 °C 4.4 °C 1014.0 hPa NO 4.8 km/h 9.7 km/h 73.4% 0.0 mm
08:09 8.7 °C 4.4 °C 1014.0 hPa Oeste 4.7 km/h 8.4 km/h 74.5% 0.0 mm
08:14 8.9 °C 4.8 °C 1014.0 hPa SSE 4.1 km/h 10.3 km/h 75.5% 0.0 mm
08:19 9.4 °C 5 °C 1014.0 hPa Sur 3.9 km/h 13.7 km/h 73.9% 0.0 mm
08:24 9.8 °C 5 °C 1014.0 hPa SSE 7.8 km/h 17.2 km/h 72.1% 0.0 mm
08:29 9.9 °C 4.9 °C 1013.6 hPa SSE 9.5 km/h 17.7 km/h 71% 0.0 mm
08:34 9.8 °C 5 °C 1013.6 hPa SE 10.1 km/h 16.1 km/h 71.9% 0.0 mm
08:39 9.8 °C 4.9 °C 1013.6 hPa Sur 10.3 km/h 13 km/h 72% 0.0 mm
08:44 9.7 °C 5.1 °C 1013.4 hPa OSO 8.4 km/h 12.9 km/h 72.8% 0.0 mm
08:49 9.8 °C 5.2 °C 1013.4 hPa ONO 7.6 km/h 11.1 km/h 73% 0.0 mm
08:54 10 °C 5.1 °C 1013.9 hPa ONO 6.8 km/h 11.3 km/h 72% 0.0 mm
08:59 9.8 °C 5.2 °C 1013.9 hPa OSO 6.5 km/h 11.3 km/h 72.7% 0.0 mm
09:04 9.9 °C 5.3 °C 1013.9 hPa OSO 6.5 km/h 10 km/h 73% 0.0 mm
09:09 10.1 °C 5.4 °C 1013.9 hPa SO 6.5 km/h 9.7 km/h 72.6% 0.0 mm
09:14 10.4 °C 5.5 °C 1013.8 hPa SSO 5.5 km/h 8.7 km/h 71.5% 0.0 mm
09:19 10.8 °C 5.6 °C 1013.8 hPa SSE 5 km/h 14 km/h 70.3% 0.0 mm
09:24 11.1 °C 5.6 °C 1013.8 hPa SSE 7.3 km/h 14.8 km/h 69% 0.0 mm
09:29 11.2 °C 5.7 °C 1013.7 hPa SSE 8.4 km/h 13.7 km/h 69% 0.0 mm
09:34 11 °C 5.7 °C 1013.7 hPa SSE 9.2 km/h 14.5 km/h 70% 0.0 mm
09:39 10.8 °C 5.7 °C 1013.7 hPa SSE 9.5 km/h 13 km/h 70.7% 0.0 mm
09:44 10.8 °C 5.8 °C 1013.7 hPa Sur 8.7 km/h 12.9 km/h 71.1% 0.0 mm
09:49 10.9 °C 5.9 °C 1013.7 hPa Sur 8.4 km/h 11.9 km/h 71.1% 0.0 mm
09:54 11.2 °C 6 °C 1013.9 hPa SSE 7.4 km/h 11.3 km/h 70.3% 0.0 mm
09:59 11.5 °C 6.1 °C 1013.9 hPa SSE 6.9 km/h 11.3 km/h 69.3% 0.0 mm
10:04 11.7 °C 6.2 °C 1013.9 hPa SO 6.1 km/h 11.3 km/h 69% 0.0 mm
10:09 11.9 °C 6.2 °C 1014.2 hPa SO 5.8 km/h 8 km/h 68.4% 0.0 mm
10:14 12.2 °C 6.4 °C 1014.2 hPa SO 3.3 km/h 3.7 km/h 67.9% 0.0 mm
10:19 12.4 °C 6.5 °C 1014.2 hPa Sur 2.2 km/h 4.7 km/h 67% 0.0 mm
10:24 12.8 °C 6.5 °C 1014.5 hPa ESE 2.2 km/h 6.4 km/h 65.7% 0.0 mm
10:29 13.1 °C 6.7 °C 1014.5 hPa ESE 2.2 km/h 8 km/h 65% 0.0 mm
10:34 13.3 °C 6.9 °C 1014.5 hPa SE 2.9 km/h 7.6 km/h 65% 0.0 mm
10:39 13.5 °C 7.2 °C 1014.5 hPa SSE 3.2 km/h 12.2 km/h 65.7% 0.0 mm
10:44 13.6 °C 7.5 °C 1014.5 hPa SE 5.4 km/h 13 km/h 66.7% 0.0 mm
10:49 13.7 °C 7.5 °C 1014.5 hPa SSE 6.5 km/h 13 km/h 66.1% 0.0 mm
10:54 13.9 °C 7.5 °C 1014.5 hPa SSE 7.2 km/h 13.7 km/h 65.2% 0.0 mm
10:59 14.2 °C 7.5 °C 1014.5 hPa SSE 7.6 km/h 14.5 km/h 63.8% 0.0 mm
11:04 14.4 °C 7.4 °C 1014.5 hPa Sur 8.4 km/h 14.5 km/h 63% 0.0 mm
11:09 14.5 °C 7.6 °C 1014.5 hPa SSO 8.7 km/h 11.3 km/h 63% 0.0 mm
11:14 14.6 °C 7.5 °C 1014.5 hPa Sur 7.5 km/h 11.3 km/h 62.4% 0.0 mm
11:19 14.7 °C 7.5 °C 1014.5 hPa Sur 6.9 km/h 9.7 km/h 62.1% 0.0 mm
11:24 14.8 °C 7.6 °C 1014.5 hPa Sur 6.2 km/h 11.9 km/h 62% 0.0 mm
11:29 15 °C 7.8 °C 1014.5 hPa Sur 5.8 km/h 11.3 km/h 62% 0.0 mm
11:34 15.3 °C 7.9 °C 1014.5 hPa Sur 6.2 km/h 13 km/h 61.4% 0.0 mm
11:39 15.6 °C 7.9 °C 1014.5 hPa Sur 6.5 km/h 13.7 km/h 60.3% 0.0 mm
11:44 16 °C 8.1 °C 1014.3 hPa SSO 7.2 km/h 14.5 km/h 59.5% 0.0 mm
11:49 16.3 °C 8.2 °C 1014.3 hPa SSO 7.6 km/h 11.3 km/h 58.5% 0.0 mm
11:54 16.7 °C 8.3 °C 1014.3 hPa SSO 7.1 km/h 11.3 km/h 57.5% 0.0 mm
11:59 17 °C 8.2 °C 1014.1 hPa Sur 6.9 km/h 11.3 km/h 56.1% 0.0 mm
12:04 17.3 °C 8.3 °C 1014.1 hPa SSO 7.4 km/h 11.3 km/h 55.4% 0.0 mm
12:09 17.4 °C 8.2 °C 1014.1 hPa SSO 7.6 km/h 11.1 km/h 54.6% 0.0 mm
12:14 17.6 °C 8.2 °C 1013.9 hPa Sur 6.8 km/h 11.3 km/h 54.3% 0.0 mm
12:19 17.8 °C 8.3 °C 1013.9 hPa Oeste 6.5 km/h 8.4 km/h 53.7% 0.0 mm
12:24 18 °C 8.3 °C 1013.9 hPa Oeste 4.7 km/h 11.1 km/h 53% 0.0 mm
12:29 18.2 °C 8.4 °C 1013.7 hPa OSO 3.9 km/h 11.9 km/h 53% 0.0 mm
12:34 18.3 °C 8.5 °C 1013.7 hPa Oeste 5.2 km/h 14.8 km/h 53% 0.0 mm
12:39 18.3 °C 8.6 °C 1013.7 hPa OSO 5.8 km/h 14.5 km/h 53.2% 0.0 mm
12:44 18.4 °C 8.7 °C 1013.4 hPa OSO 6.6 km/h 11.1 km/h 53.1% 0.0 mm
12:49 18.5 °C 8.7 °C 1013.4 hPa Oeste 6.9 km/h 11.3 km/h 53% 0.0 mm
12:54 18.6 °C 8.8 °C 1013.4 hPa Oeste 5.6 km/h 8.4 km/h 53% 0.0 mm
12:59 18.7 °C 8.9 °C 1013.1 hPa Oeste 5 km/h 8 km/h 53% 0.0 mm
13:04 18.8 °C 8.8 °C 1013.1 hPa ONO 3.7 km/h 7.6 km/h 52.1% 0.0 mm
13:09 19 °C 9.2 °C 1013.1 hPa SO 3.2 km/h 8 km/h 52.9% 0.0 mm
13:14 19.3 °C 9.1 °C 1013.1 hPa ONO 3 km/h 8 km/h 51.8% 0.0 mm
13:19 19.4 °C 9 °C 1013.1 hPa NO 2.9 km/h 10 km/h 51% 0.0 mm
13:24 19.4 °C 9 °C 1013.1 hPa Oeste 4.3 km/h 11.1 km/h 51% 0.0 mm
13:29 19.4 °C 9 °C 1012.8 hPa Oeste 5 km/h 11.3 km/h 51% 0.0 mm
13:34 19.5 °C 9.3 °C 1012.8 hPa ONO 5 km/h 9.3 km/h 51.7% 0.0 mm
13:39 19.7 °C 9.3 °C 1012.8 hPa OSO 5 km/h 9.7 km/h 51% 0.0 mm
13:44 19.8 °C 9.4 °C 1012.5 hPa OSO 5 km/h 9.7 km/h 51% 0.0 mm
13:49 20.1 °C 9.4 °C 1012.5 hPa OSO 5 km/h 9.7 km/h 50.4% 0.0 mm
13:54 20.2 °C 9.5 °C 1012.5 hPa OSO 5 km/h 10 km/h 50.4% 0.0 mm
13:59 20.3 °C 9.5 °C 1012.2 hPa SO 5 km/h 13 km/h 50% 0.0 mm
14:04 20.4 °C 9.6 °C 1012.2 hPa OSO 6.9 km/h 16.1 km/h 50% 0.0 mm
14:09 20.5 °C 9.7 °C 1012.2 hPa OSO 7.6 km/h 16.7 km/h 49.9% 0.0 mm
14:14 20.7 °C 9.8 °C 1012.0 hPa SO 8.1 km/h 13 km/h 49.9% 0.0 mm
14:19 20.7 °C 9.9 °C 1012.0 hPa SO 8.4 km/h 13 km/h 49.8% 0.0 mm
14:24 20.8 °C 10.1 °C 1012.0 hPa SO 7.8 km/h 13 km/h 50% 0.0 mm
14:29 21 °C 10.1 °C 1011.9 hPa SO 7.6 km/h 12.9 km/h 49.9% 0.0 mm
14:34 21.1 °C 10.3 °C 1011.9 hPa OSO 6.8 km/h 11.3 km/h 49.9% 0.0 mm
14:39 21.1 °C 10.3 °C 1011.9 hPa SO 6.5 km/h 9.7 km/h 50% 0.0 mm
14:44 21.2 °C 10.3 °C 1011.8 hPa SSO 5.5 km/h 8 km/h 49.8% 0.0 mm
14:49 21.3 °C 10.4 °C 1011.8 hPa Sur 5 km/h 10 km/h 49.7% 0.0 mm
14:54 21.3 °C 10.4 °C 1011.8 hPa SSE 4.8 km/h 9.7 km/h 50% 0.0 mm
14:59 21.3 °C 10.3 °C 1011.8 hPa SSE 4.7 km/h 8 km/h 49.6% 0.0 mm
15:04 21.3 °C 10.4 °C 1011.8 hPa Sur 4.7 km/h 8 km/h 50% 0.0 mm
15:09 21.3 °C 10.4 °C 1011.8 hPa SSE 4.7 km/h 10 km/h 50% 0.0 mm
15:14 21.2 °C 10.4 °C 1011.7 hPa SSE 5.4 km/h 10 km/h 50% 0.0 mm
15:19 21.2 °C 10.3 °C 1011.7 hPa SSE 5.8 km/h 11.9 km/h 50% 0.0 mm
15:24 21.2 °C 10.3 °C 1011.9 hPa SE 6.5 km/h 11.3 km/h 50% 0.0 mm
15:29 21.1 °C 10.5 °C 1011.9 hPa SE 6.9 km/h 11.1 km/h 50.7% 0.0 mm
15:34 21 °C 10.5 °C 1011.9 hPa SE 6.6 km/h 11.3 km/h 51% 0.0 mm
15:39 21 °C 10.5 °C 1011.9 hPa SSE 6.5 km/h 9.5 km/h 51% 0.0 mm
15:44 21 °C 10.5 °C 1011.7 hPa Sur 6 km/h 9.7 km/h 51% 0.0 mm
15:49 21 °C 10.5 °C 1011.7 hPa SSE 5.8 km/h 8 km/h 51% 0.0 mm
15:54 21.1 °C 10.6 °C 1011.8 hPa Sur 4.5 km/h 8 km/h 51% 0.0 mm
15:59 21.2 °C 10.4 °C 1011.8 hPa SO 3.9 km/h 5.6 km/h 50.4% 0.0 mm
16:04 21.2 °C 10.3 °C 1011.8 hPa OSO 2.7 km/h 4.8 km/h 50% 0.0 mm
16:09 21.3 °C 10.6 °C 1011.8 hPa OSO 2.2 km/h 5.6 km/h 50.5% 0.0 mm
16:14 21.3 °C 10.7 °C 1011.7 hPa OSO 2.2 km/h 7.4 km/h 51% 0.0 mm
16:19 21.3 °C 10.7 °C 1011.7 hPa OSO 2.2 km/h 8 km/h 50.8% 0.0 mm
16:24 21.3 °C 10.7 °C 1011.8 hPa OSO 2.9 km/h 8 km/h 51% 0.0 mm
16:29 21.3 °C 10.9 °C 1011.8 hPa OSO 3.2 km/h 6.4 km/h 51.6% 0.0 mm
16:34 21.3 °C 11.1 °C 1011.8 hPa ONO 3 km/h 8 km/h 52% 0.0 mm
16:39 21.3 °C 11.1 °C 1011.8 hPa ONO 2.9 km/h 8 km/h 52% 0.0 mm
16:44 21.3 °C 11 °C 1011.8 hPa ONO 2.5 km/h 5.8 km/h 52% 0.0 mm
16:49 21.2 °C 10.9 °C 1011.8 hPa SO 2.2 km/h 8.4 km/h 52% 0.0 mm
16:54 21.2 °C 10.9 °C 1011.9 hPa SSE 3.4 km/h 8 km/h 51.8% 0.0 mm
16:59 21.1 °C 11.2 °C 1011.9 hPa SE 3.9 km/h 11.1 km/h 53% 0.0 mm
17:04 20.9 °C 11.2 °C 1011.9 hPa SE 4.4 km/h 11.3 km/h 54% 0.0 mm
17:09 20.8 °C 11.3 °C 1011.9 hPa SSE 4.7 km/h 11.3 km/h 54.4% 0.0 mm
17:14 20.9 °C 11.2 °C 1011.9 hPa SO 4.1 km/h 8 km/h 54% 0.0 mm
17:19 21.1 °C 11.3 °C 1011.9 hPa Sur 3.9 km/h 8.7 km/h 53.5% 0.0 mm
17:24 21.1 °C 11.2 °C 1012.0 hPa Sur 3.9 km/h 9.7 km/h 53.2% 0.0 mm
17:29 21 °C 11.3 °C 1012.0 hPa SO 3.9 km/h 8 km/h 54% 0.0 mm
17:34 20.8 °C 11.2 °C 1012.0 hPa Oeste 3.4 km/h 17.2 km/h 54% 0.0 mm
17:39 20.7 °C 11.1 °C 1012.2 hPa OSO 3.2 km/h 17.7 km/h 54.2% 0.0 mm
17:44 20.6 °C 11 °C 1012.2 hPa OSO 5 km/h 16.1 km/h 54.3% 0.0 mm
17:49 20.4 °C 10.8 °C 1012.2 hPa OSO 5.8 km/h 14 km/h 54% 0.0 mm
17:54 20.3 °C 10.7 °C 1012.4 hPa SO 7 km/h 14.8 km/h 54% 0.0 mm
17:59 20.2 °C 10.6 °C 1012.4 hPa OSO 7.6 km/h 12.9 km/h 54% 0.0 mm
18:04 20.2 °C 10.6 °C 1012.4 hPa OSO 6.8 km/h 13 km/h 54% 0.0 mm
18:09 20.2 °C 10.6 °C 1012.9 hPa OSO 6.5 km/h 13.7 km/h 54% 0.0 mm
18:14 20.2 °C 10.6 °C 1012.9 hPa SO 6.5 km/h 14.5 km/h 54% 0.0 mm
18:19 20.2 °C 10.6 °C 1012.9 hPa SO 6.5 km/h 12.2 km/h 54% 0.0 mm
18:24 20.1 °C 10.5 °C 1013.0 hPa SO 6.8 km/h 14.8 km/h 54% 0.0 mm
18:29 20.1 °C 10.6 °C 1013.0 hPa SO 6.9 km/h 14.8 km/h 54.3% 0.0 mm
18:34 19.9 °C 10.6 °C 1013.0 hPa OSO 8.2 km/h 16.7 km/h 55% 0.0 mm
18:39 19.9 °C 10.6 °C 1013.0 hPa OSO 8.7 km/h 16.1 km/h 55% 0.0 mm
18:44 19.8 °C 10.5 °C 1013.0 hPa OSO 8.7 km/h 16.1 km/h 55% 0.0 mm
18:49 19.9 °C 10.6 °C 1013.0 hPa OSO 8.7 km/h 16.7 km/h 55% 0.0 mm
18:54 20.1 °C 10.7 °C 1013.0 hPa OSO 8.7 km/h 19 km/h 54.7% 0.0 mm
18:59 20.1 °C 10.8 °C 1012.9 hPa SO 8.7 km/h 19.3 km/h 54.9% 0.0 mm
19:04 20 °C 10.7 °C 1012.9 hPa Oeste 6.6 km/h 12.9 km/h 55% 0.0 mm
19:09 19.8 °C 10.7 °C 1013.0 hPa OSO 5.8 km/h 11.1 km/h 55.7% 0.0 mm
19:14 19.7 °C 10.8 °C 1013.0 hPa SO 5.2 km/h 11.3 km/h 56.5% 0.0 mm
19:19 19.5 °C 10.9 °C 1013.0 hPa SO 5 km/h 11.9 km/h 57.4% 0.0 mm
19:24 19.3 °C 10.9 °C 1013.0 hPa SSO 6.3 km/h 13.7 km/h 58.1% 0.0 mm
19:29 19.2 °C 11 °C 1013.0 hPa Sur 6.9 km/h 14.8 km/h 59.2% 0.0 mm
19:34 18.8 °C 11.2 °C 1013.0 hPa Sur 6.9 km/h 14.5 km/h 61.2% 0.0 mm
19:39 18.5 °C 11.2 °C 1013.3 hPa SSE 6.9 km/h 13 km/h 62.7% 0.0 mm
19:44 18.2 °C 11.2 °C 1013.3 hPa SSO 7.4 km/h 13.7 km/h 63.8% 0.0 mm
19:49 18.1 °C 11.2 °C 1013.3 hPa SSO 7.6 km/h 14.5 km/h 64% 0.0 mm
19:54 18.2 °C 11.3 °C 1013.5 hPa SSO 7.6 km/h 13.7 km/h 64% 0.0 mm
19:59 18.3 °C 11.3 °C 1013.5 hPa SSO 7.6 km/h 14.5 km/h 63.5% 0.0 mm
20:04 18.3 °C 11.2 °C 1013.5 hPa OSO 7.1 km/h 11.3 km/h 63.2% 0.0 mm
20:09 18.2 °C 11.3 °C 1013.8 hPa SO 6.9 km/h 11.1 km/h 64% 0.0 mm
20:14 18.1 °C 11.2 °C 1013.8 hPa SO 5.6 km/h 11.3 km/h 64% 0.0 mm
20:19 18.1 °C 11.2 °C 1013.8 hPa SO 5 km/h 9.7 km/h 64% 0.0 mm
20:24 18.1 °C 11.2 °C 1014.1 hPa Sur 5.5 km/h 8.4 km/h 64% 0.0 mm
20:29 18.1 °C 11.1 °C 1014.1 hPa SSE 5.8 km/h 8 km/h 64% 0.0 mm
20:34 18 °C 11.1 °C 1014.1 hPa SSE 5.2 km/h 8 km/h 64% 0.0 mm
20:39 18 °C 11.1 °C 1014.1 hPa SSE 5 km/h 5.6 km/h 64% 0.0 mm
20:44 18 °C 11.1 °C 1014.1 hPa SO 3.8 km/h 7.4 km/h 64% 0.0 mm
20:49 17.9 °C 11 °C 1014.1 hPa OSO 3.2 km/h 8 km/h 64% 0.0 mm
20:54 17.7 °C 11 °C 1014.2 hPa OSO 2.6 km/h 4.7 km/h 64.5% 0.0 mm
20:59 17.6 °C 11 °C 1014.2 hPa OSO 2.2 km/h 6.9 km/h 65.2% 0.0 mm
21:04 17.3 °C 11 °C 1014.2 hPa SSE 2.9 km/h 9.5 km/h 66.3% 0.0 mm
21:09 17.1 °C 11 °C 1014.3 hPa SSE 3.2 km/h 9.7 km/h 67.2% 0.0 mm
21:14 16.9 °C 11 °C 1014.3 hPa OSO 4.4 km/h 8 km/h 68% 0.0 mm
21:19 16.8 °C 10.9 °C 1014.3 hPa SSO 5 km/h 9.5 km/h 68.5% 0.0 mm
21:24 16.6 °C 10.9 °C 1014.3 hPa SSO 4.8 km/h 9.7 km/h 69% 0.0 mm
21:29 16.6 °C 10.9 °C 1014.3 hPa Sur 4.7 km/h 9.7 km/h 69% 0.0 mm
21:34 16.6 °C 10.9 °C 1014.3 hPa SSO 5.9 km/h 8.4 km/h 69% 0.0 mm
21:39 16.6 °C 10.8 °C 1014.3 hPa OSO 6.5 km/h 8 km/h 69% 0.0 mm
21:44 16.3 °C 10.7 °C 1014.3 hPa SO 5.5 km/h 8.4 km/h 69.5% 0.0 mm
21:49 16.1 °C 10.6 °C 1014.3 hPa OSO 5 km/h 8 km/h 70% 0.0 mm
21:54 15.9 °C 10.6 °C 1014.3 hPa SO 5 km/h 9.5 km/h 70.5% 0.0 mm
21:59 16 °C 10.6 °C 1014.3 hPa OSO 5 km/h 9.7 km/h 70% 0.0 mm
22:04 16.1 °C 10.6 °C 1014.3 hPa OSO 6 km/h 11.1 km/h 70% 0.0 mm
22:09 16.1 °C 10.6 °C 1014.5 hPa OSO 6.5 km/h 11.3 km/h 70% 0.0 mm
22:14 16 °C 10.5 °C 1014.5 hPa SO 6 km/h 9.7 km/h 70% 0.0 mm
22:19 15.9 °C 10.5 °C 1014.5 hPa SO 5.8 km/h 11.1 km/h 70% 0.0 mm
22:24 16.2 °C 10.6 °C 1014.6 hPa SSO 5.2 km/h 11.3 km/h 69.7% 0.0 mm
22:29 16.2 °C 10.5 °C 1014.6 hPa Sur 5 km/h 10 km/h 69% 0.0 mm
22:34 16.1 °C 10.5 °C 1014.6 hPa Sur 6.3 km/h 9.7 km/h 69.3% 0.0 mm
22:39 15.9 °C 10.5 °C 1014.6 hPa Sur 6.9 km/h 9.7 km/h 70.1% 0.0 mm
22:44 15.8 °C 10.6 °C 1014.6 hPa Sur 6.2 km/h 9.7 km/h 71% 0.0 mm
22:49 15.7 °C 10.5 °C 1014.6 hPa Sur 5.8 km/h 8 km/h 71% 0.0 mm
22:54 15.7 °C 10.4 °C 1014.6 hPa SE 5 km/h 9.3 km/h 71.1% 0.0 mm
22:59 15.3 °C 10.4 °C 1014.4 hPa SE 4.7 km/h 11.1 km/h 72.5% 0.0 mm
23:04 14.8 °C 10.3 °C 1014.4 hPa SE 5.9 km/h 11.3 km/h 74.7% 0.0 mm
23:09 14.6 °C 10.4 °C 1014.6 hPa SSE 6.5 km/h 11.1 km/h 75.9% 0.0 mm
23:14 14.5 °C 10.3 °C 1014.6 hPa SSE 6.8 km/h 11.3 km/h 76% 0.0 mm
23:19 14.5 °C 10.5 °C 1014.6 hPa SE 6.9 km/h 11.3 km/h 76.9% 0.0 mm
23:24 14.6 °C 10.4 °C 1014.7 hPa SSE 7.4 km/h 11.3 km/h 76.1% 0.0 mm
23:29 14.7 °C 10.5 °C 1014.7 hPa SSO 7.6 km/h 11.3 km/h 75.9% 0.0 mm
23:34 14.9 °C 10.4 °C 1014.7 hPa SSO 7.1 km/h 11.3 km/h 74.8% 0.0 mm
23:39 15.1 °C 10.5 °C 1014.7 hPa SO 6.9 km/h 11.3 km/h 74% 0.0 mm
23:44 15.2 °C 10.5 °C 1014.6 hPa SO 6.6 km/h 11.3 km/h 73.3% 0.0 mm
23:49 15.2 °C 10.5 °C 1014.6 hPa SSO 6.5 km/h 8 km/h 73.6% 0.0 mm
23:54 15.2 °C 10.4 °C 1014.6 hPa Sur 5.5 km/h 8 km/h 73.1% 0.0 mm
23:59 15.2 °C 10.3 °C 1014.6 hPa ESE 5 km/h 8 km/h 73% 0.0 mm
Murcia-Puente Tocinos, España
Compliments of Weather Underground - 3 mb

La estación de MeteoMurcia.com, publica sus datos en los siguientes proyectos:

Weather Underground PWS IMURCIAP2 Meteoclimatic www.awekas.at

W3Counter
Web Analytics